Time;durP1;ratioP1;P1;durP2;ratioP2;P2;SDS_P1;SDS_P2;PMS_P1;PMS_P2;Temp;Humidity;BMP_temperature;BMP_pressure;BME280_temperature;BME280_humidity;BME280_pressure;Samples;Min_cycle;Max_cycle;Signal;HPM_P1;HPM_P2
2021/09/18 00:00:41;;;;;;;25.05;15.20;;;;;;;;;;6239497;28;20045;-80
2021/09/18 00:03:43;;;;;;;21.63;14.65;;;;;;;;;;6243044;28;20051;-82
2021/09/18 00:06:45;;;;;;;21.02;14.32;;;;;;;;;;6242480;28;20057;-82
2021/09/18 00:09:47;;;;;;;26.33;15.63;;;;;;;;;;6223266;28;20132;-82
2021/09/18 00:12:49;;;;;;;28.63;15.85;;;;;;;;;;6241892;28;20054;-82
2021/09/18 00:15:50;;;;;;;34.88;16.63;;;;;;;;;;6238188;28;20045;-80
2021/09/18 00:18:52;;;;;;;36.50;16.63;;;;;;;;;;6240974;28;20042;-82
2021/09/18 00:21:54;;;;;;;30.00;17.52;;;;;;;;;;6216262;28;20587;-81
2021/09/18 00:24:56;;;;;;;43.88;18.48;;;;;;;;;;6230643;28;20052;-80
2021/09/18 00:27:58;;;;;;;28.47;16.37;;;;;;;;;;6241017;28;20502;-81
2021/09/18 00:30:59;;;;;;;28.65;16.58;;;;;;;;;;6240198;28;20042;-80
2021/09/18 00:34:01;;;;;;;28.98;17.20;;;;;;;;;;6240078;28;20054;-81
2021/09/18 00:37:03;;;;;;;28.65;16.83;;;;;;;;;;6239660;28;20546;-81
2021/09/18 00:40:06;;;;;;;28.08;16.20;;;;;;;;;;6241172;28;20494;-79
2021/09/18 00:43:08;;;;;;;33.40;18.13;;;;;;;;;;6242104;28;20044;-81
2021/09/18 00:46:10;;;;;;;26.50;16.45;;;;;;;;;;6222015;28;20498;-80
2021/09/18 00:49:11;;;;;;;30.48;17.60;;;;;;;;;;6242341;28;20052;-82
2021/09/18 00:52:19;;;;;;;27.23;16.70;;;;;;;;;;6223474;28;20041;-82
2021/09/18 00:55:21;;;;;;;29.08;16.13;;;;;;;;;;6239299;28;20128;-80
2021/09/18 00:58:22;;;;;;;28.67;16.15;;;;;;;;;;6239717;28;20289;-82
2021/09/18 01:01:24;;;;;;;27.55;16.10;;;;;;;;;;6238876;28;20056;-81
2021/09/18 01:04:26;;;;;;;25.42;14.95;;;;;;;;;;6232725;28;20442;-82
2021/09/18 01:07:28;;;;;;;22.20;14.30;;;;;;;;;;6239279;28;20398;-80
2021/09/18 01:10:29;;;;;;;19.85;12.75;;;;;;;;;;6233018;28;20122;-81
2021/09/18 01:13:33;;;;;;;19.25;12.43;;;;;;;;;;6243688;28;20127;-82
2021/09/18 01:16:35;;;;;;;20.63;12.38;;;;;;;;;;6241741;28;20053;-82
2021/09/18 01:19:37;;;;;;;18.23;12.27;;;;;;;;;;6243415;28;20045;-82
2021/09/18 01:22:39;;;;;;;27.60;14.77;;;;;;;;;;6240120;28;20650;-83
2021/09/18 01:25:41;;;;;;;21.80;14.13;;;;;;;;;;6240400;28;20088;-80
2021/09/18 01:28:42;;;;;;;21.02;14.15;;;;;;;;;;6242363;28;20045;-82
2021/09/18 01:31:46;;;;;;;22.38;14.18;;;;;;;;;;6209372;28;20137;-82
2021/09/18 01:34:49;;;;;;;19.95;12.85;;;;;;;;;;6217001;28;20056;-82
2021/09/18 01:37:50;;;;;;;20.05;13.20;;;;;;;;;;6226060;28;20068;-82
2021/09/18 01:40:52;;;;;;;26.35;16.55;;;;;;;;;;6251674;28;20185;-80
2021/09/18 01:43:54;;;;;;;26.65;16.33;;;;;;;;;;6221980;28;20046;-81
2021/09/18 01:46:55;;;;;;;29.08;17.70;;;;;;;;;;6239151;28;20042;-82
2021/09/18 01:49:57;;;;;;;27.08;16.00;;;;;;;;;;6242022;28;20057;-82
2021/09/18 01:53:01;;;;;;;23.13;15.68;;;;;;;;;;6238719;28;20115;-82
2021/09/18 01:56:03;;;;;;;23.65;16.05;;;;;;;;;;6240195;28;20041;-81
2021/09/18 01:59:05;;;;;;;30.80;16.20;;;;;;;;;;6239689;28;20041;-82
2021/09/18 02:02:07;;;;;;;30.88;15.75;;;;;;;;;;6239859;28;20045;-80
2021/09/18 02:05:09;;;;;;;26.48;15.88;;;;;;;;;;6222948;28;20081;-82
2021/09/18 02:08:11;;;;;;;29.65;16.88;;;;;;;;;;6240384;28;20124;-79
2021/09/18 02:11:13;;;;;;;36.78;17.08;;;;;;;;;;6202890;28;20039;-81
2021/09/18 02:14:15;;;;;;;29.95;17.63;;;;;;;;;;6238399;28;20407;-82
2021/09/18 02:17:16;;;;;;;34.38;19.40;;;;;;;;;;6238128;28;20172;-80
2021/09/18 02:20:20;;;;;;;54.17;19.63;;;;;;;;;;6239283;28;20038;-81
2021/09/18 02:23:22;;;;;;;28.85;17.83;;;;;;;;;;6239551;28;20045;-81
2021/09/18 02:26:23;;;;;;;27.02;16.95;;;;;;;;;;6240556;28;20196;-82
2021/09/18 02:29:25;;;;;;;26.80;16.02;;;;;;;;;;6240226;28;20069;-81
2021/09/18 02:32:27;;;;;;;33.90;18.92;;;;;;;;;;6232287;28;20128;-81
2021/09/18 02:35:30;;;;;;;34.28;17.27;;;;;;;;;;6240157;28;20046;-81
2021/09/18 02:38:32;;;;;;;24.50;16.17;;;;;;;;;;6241053;28;20049;-81
2021/09/18 02:41:33;;;;;;;24.75;15.85;;;;;;;;;;6272790;28;20530;-80
2021/09/18 02:44:35;;;;;;;24.73;15.05;;;;;;;;;;6242336;28;20081;-82
2021/09/18 02:47:37;;;;;;;23.15;15.20;;;;;;;;;;6222222;28;20053;-82
2021/09/18 02:50:39;;;;;;;27.13;17.00;;;;;;;;;;6240925;28;20104;-82
2021/09/18 02:53:40;;;;;;;29.17;18.08;;;;;;;;;;6239264;28;20056;-82
2021/09/18 02:56:42;;;;;;;27.67;18.45;;;;;;;;;;6241636;28;20053;-80
2021/09/18 02:59:44;;;;;;;29.33;17.88;;;;;;;;;;6238723;28;20045;-80
2021/09/18 03:02:46;;;;;;;47.28;18.00;;;;;;;;;;6234541;28;20049;-80
2021/09/18 03:05:48;;;;;;;51.43;19.20;;;;;;;;;;6236235;28;20132;-82
2021/09/18 03:08:49;;;;;;;42.67;17.45;;;;;;;;;;6234278;28;20395;-80
2021/09/18 03:11:51;;;;;;;41.70;16.95;;;;;;;;;;6192629;28;20104;-79
2021/09/18 03:14:53;;;;;;;31.27;17.63;;;;;;;;;;6193204;28;20666;-80
2021/09/18 03:17:57;;;;;;;29.75;17.05;;;;;;;;;;6252364;28;20052;-81
2021/09/18 03:20:58;;;;;;;28.77;16.52;;;;;;;;;;6238869;28;20053;-80
2021/09/18 03:24:00;;;;;;;32.10;18.23;;;;;;;;;;6236850;28;20380;-80
2021/09/18 03:27:02;;;;;;;49.55;19.73;;;;;;;;;;6235417;28;20053;-79
2021/09/18 03:30:06;;;;;;;28.95;17.80;;;;;;;;;;6239807;28;20109;-82
2021/09/18 03:33:07;;;;;;;26.45;15.95;;;;;;;;;;6238456;28;20049;-81
2021/09/18 03:36:09;;;;;;;36.08;15.88;;;;;;;;;;6238923;28;20119;-80
2021/09/18 03:39:11;;;;;;;30.92;16.13;;;;;;;;;;6234517;28;20041;-81
2021/09/18 03:42:13;;;;;;;29.48;15.70;;;;;;;;;;6240506;28;20108;-80
2021/09/18 03:45:15;;;;;;;29.70;15.48;;;;;;;;;;6241400;28;20053;-81
2021/09/18 03:48:17;;;;;;;48.35;17.30;;;;;;;;;;6272409;28;20046;-82
2021/09/18 03:51:18;;;;;;;47.30;18.00;;;;;;;;;;6242159;28;20124;-80
2021/09/18 03:54:20;;;;;;;50.75;21.30;;;;;;;;;;6240361;28;20056;-82
2021/09/18 03:57:22;;;;;;;57.25;22.02;;;;;;;;;;6242401;28;20694;-81
2021/09/18 04:00:24;;;;;;;71.93;21.20;;;;;;;;;;6223569;28;20053;-82
2021/09/18 04:03:26;;;;;;;58.40;21.65;;;;;;;;;;6224089;28;20506;-81
2021/09/18 04:06:28;;;;;;;62.72;22.92;;;;;;;;;;6223268;28;20091;-81
2021/09/18 04:09:30;;;;;;;58.65;21.48;;;;;;;;;;6246329;28;20099;-82
2021/09/18 04:12:31;;;;;;;65.10;21.55;;;;;;;;;;6242580;28;20069;-82
2021/09/18 04:15:34;;;;;;;57.00;22.88;;;;;;;;;;6225157;28;20050;-82
2021/09/18 04:18:35;;;;;;;41.08;21.38;;;;;;;;;;6242437;28;20048;-82
2021/09/18 04:21:37;;;;;;;54.58;20.73;;;;;;;;;;6242718;28;20048;-82
2021/09/18 04:24:39;;;;;;;44.42;20.38;;;;;;;;;;6239958;28;20045;-80
2021/09/18 04:27:40;;;;;;;34.78;19.48;;;;;;;;;;6234985;28;20057;-80
2021/09/18 04:30:42;;;;;;;39.75;19.98;;;;;;;;;;6243416;28;20056;-81
2021/09/18 04:33:44;;;;;;;38.33;18.67;;;;;;;;;;6242683;28;20041;-82
2021/09/18 04:36:46;;;;;;;31.20;18.33;;;;;;;;;;6241799;28;20138;-80
2021/09/18 04:39:47;;;;;;;26.98;16.77;;;;;;;;;;6238387;28;20076;-81
2021/09/18 04:42:49;;;;;;;50.22;19.45;;;;;;;;;;6219715;28;20107;-80
2021/09/18 04:45:54;;;;;;;90.07;21.10;;;;;;;;;;6235992;28;20552;-80
2021/09/18 04:48:55;;;;;;;50.47;19.80;;;;;;;;;;6238547;28;20047;-80
2021/09/18 04:51:57;;;;;;;86.63;23.13;;;;;;;;;;6239036;28;20049;-81
2021/09/18 04:54:59;;;;;;;41.75;21.63;;;;;;;;;;6235970;28;20164;-81
2021/09/18 04:58:00;;;;;;;47.13;20.50;;;;;;;;;;6238006;28;20076;-81
2021/09/18 05:01:02;;;;;;;55.10;21.55;;;;;;;;;;6231705;28;20041;-81
2021/09/18 05:04:04;;;;;;;53.95;22.35;;;;;;;;;;6239539;28;20414;-79
2021/09/18 05:07:06;;;;;;;38.60;20.08;;;;;;;;;;6238403;28;20657;-81
2021/09/18 05:10:08;;;;;;;46.97;20.48;;;;;;;;;;6232417;28;20053;-80
2021/09/18 05:13:10;;;;;;;49.22;21.67;;;;;;;;;;6236315;28;20045;-81
2021/09/18 05:16:11;;;;;;;48.67;23.52;;;;;;;;;;6236621;28;20199;-80
2021/09/18 05:19:13;;;;;;;55.38;23.42;;;;;;;;;;6240441;28;20042;-80
2021/09/18 05:22:15;;;;;;;46.00;19.25;;;;;;;;;;6237506;28;20045;-81
2021/09/18 05:25:17;;;;;;;68.15;20.05;;;;;;;;;;6220021;28;20046;-80
2021/09/18 05:28:18;;;;;;;44.90;18.70;;;;;;;;;;6235685;28;20457;-80
2021/09/18 05:31:20;;;;;;;53.75;19.48;;;;;;;;;;6228065;28;20208;-79
2021/09/18 05:34:22;;;;;;;43.75;19.42;;;;;;;;;;6231891;28;20045;-79
2021/09/18 05:37:24;;;;;;;36.40;17.42;;;;;;;;;;6237660;28;20175;-79
2021/09/18 05:40:26;;;;;;;52.63;18.83;;;;;;;;;;6235235;28;20057;-79
2021/09/18 05:43:27;;;;;;;38.08;18.85;;;;;;;;;;6242910;28;20170;-79
2021/09/18 05:46:29;;;;;;;68.80;18.45;;;;;;;;;;6239361;28;20490;-78
2021/09/18 05:49:31;;;;;;;33.13;17.02;;;;;;;;;;6238040;28;20049;-80
2021/09/18 05:52:33;;;;;;;39.28;16.38;;;;;;;;;;6235699;28;20545;-81
2021/09/18 05:55:35;;;;;;;47.73;17.83;;;;;;;;;;6229087;28;20391;-79
2021/09/18 05:58:37;;;;;;;34.33;17.27;;;;;;;;;;6237754;28;20049;-80
2021/09/18 06:01:38;;;;;;;38.75;16.70;;;;;;;;;;6222583;28;20046;-81
2021/09/18 06:04:40;;;;;;;68.88;16.20;;;;;;;;;;6228342;28;20112;-80
2021/09/18 06:07:42;;;;;;;44.88;15.95;;;;;;;;;;6235751;28;20119;-79
2021/09/18 06:10:44;;;;;;;41.90;16.30;;;;;;;;;;6223175;28;20060;-81
2021/09/18 06:13:45;;;;;;;34.75;15.50;;;;;;;;;;6235086;28;20041;-79
2021/09/18 06:16:47;;;;;;;42.10;14.85;;;;;;;;;;6226424;28;20417;-81
2021/09/18 06:19:50;;;;;;;31.73;15.77;;;;;;;;;;6236051;28;20053;-79
2021/09/18 06:22:51;;;;;;;30.88;16.05;;;;;;;;;;6229570;28;20045;-80
2021/09/18 06:25:56;;;;;;;28.23;15.85;;;;;;;;;;6212380;28;20053;-79
2021/09/18 06:28:57;;;;;;;33.80;17.05;;;;;;;;;;6222479;28;20052;-79
2021/09/18 06:31:59;;;;;;;29.95;15.73;;;;;;;;;;6235457;28;20396;-81
2021/09/18 06:35:01;;;;;;;34.38;16.73;;;;;;;;;;6238483;28;20188;-80
2021/09/18 06:38:07;;;;;;;29.33;15.63;;;;;;;;;;6231532;28;20042;-80
2021/09/18 06:41:09;;;;;;;24.60;15.20;;;;;;;;;;6234914;28;20049;-81
2021/09/18 06:44:11;;;;;;;41.83;15.57;;;;;;;;;;6237273;28;20118;-80
2021/09/18 06:47:13;;;;;;;32.28;16.67;;;;;;;;;;6235279;28;20045;-81
2021/09/18 06:50:15;;;;;;;28.30;16.00;;;;;;;;;;6257339;28;20070;-81
2021/09/18 06:53:17;;;;;;;37.40;16.73;;;;;;;;;;6233060;28;20137;-79
2021/09/18 06:56:19;;;;;;;41.80;16.15;;;;;;;;;;6236448;28;20056;-78
2021/09/18 06:59:21;;;;;;;63.75;17.27;;;;;;;;;;6236411;28;20573;-80
2021/09/18 07:02:22;;;;;;;30.58;15.77;;;;;;;;;;6235061;28;20120;-80
2021/09/18 07:05:24;;;;;;;69.47;17.45;;;;;;;;;;6237717;28;20130;-80
2021/09/18 07:08:26;;;;;;;48.90;16.05;;;;;;;;;;6235871;28;20052;-80
2021/09/18 07:11:27;;;;;;;29.25;16.05;;;;;;;;;;6240569;28;20053;-79
2021/09/18 07:14:29;;;;;;;40.28;16.40;;;;;;;;;;6224502;28;20069;-80
2021/09/18 07:17:31;;;;;;;31.52;16.65;;;;;;;;;;6239258;28;20068;-79
2021/09/18 07:20:33;;;;;;;29.88;15.85;;;;;;;;;;6230574;28;20049;-80
2021/09/18 07:23:35;;;;;;;29.30;14.95;;;;;;;;;;6216597;28;20049;-79
2021/09/18 07:26:37;;;;;;;31.45;14.45;;;;;;;;;;6227145;28;20503;-80
2021/09/18 07:29:39;;;;;;;31.33;15.88;;;;;;;;;;6234927;28;20439;-79
2021/09/18 07:32:40;;;;;;;44.83;16.67;;;;;;;;;;6235842;28;20045;-80
2021/09/18 07:35:43;;;;;;;41.83;15.85;;;;;;;;;;6239956;28;20645;-80
2021/09/18 07:38:44;;;;;;;33.05;15.90;;;;;;;;;;6238618;28;20487;-80
2021/09/18 07:41:46;;;;;;;27.95;14.93;;;;;;;;;;6239153;28;20037;-80
2021/09/18 07:44:48;;;;;;;36.75;17.08;;;;;;;;;;6239374;28;20527;-80
2021/09/18 07:47:49;;;;;;;34.63;16.60;;;;;;;;;;6233433;28;20053;-79
2021/09/18 07:50:51;;;;;;;34.10;16.95;;;;;;;;;;6240185;28;20095;-80
2021/09/18 07:53:53;;;;;;;33.97;16.95;;;;;;;;;;6238625;28;20068;-79
2021/09/18 07:56:55;;;;;;;33.30;17.50;;;;;;;;;;6228325;28;20042;-80
2021/09/18 07:59:56;;;;;;;27.45;16.40;;;;;;;;;;6236779;28;20069;-81
2021/09/18 08:02:58;;;;;;;34.90;18.67;;;;;;;;;;6239285;28;20056;-81
2021/09/18 08:06:00;;;;;;;32.38;18.15;;;;;;;;;;6238149;28;20049;-80
2021/09/18 08:09:04;;;;;;;34.03;17.75;;;;;;;;;;6237686;28;20055;-80
2021/09/18 08:12:06;;;;;;;35.13;18.67;;;;;;;;;;6237882;28;20101;-79
2021/09/18 08:15:08;;;;;;;35.27;19.57;;;;;;;;;;6220747;28;20045;-80
2021/09/18 08:18:10;;;;;;;31.92;18.23;;;;;;;;;;6240390;28;20042;-78
2021/09/18 08:21:12;;;;;;;28.85;16.85;;;;;;;;;;6236946;28;20065;-79
2021/09/18 08:24:14;;;;;;;28.73;17.50;;;;;;;;;;6267547;28;20052;-80
2021/09/18 08:27:16;;;;;;;28.73;17.83;;;;;;;;;;6237053;28;20034;-79
2021/09/18 08:30:18;;;;;;;31.38;18.25;;;;;;;;;;6237771;28;20049;-81
2021/09/18 08:33:19;;;;;;;29.23;18.00;;;;;;;;;;6239808;28;20048;-80
2021/09/18 08:36:21;;;;;;;30.33;18.55;;;;;;;;;;6240106;28;20518;-80
2021/09/18 08:39:23;;;;;;;30.40;18.30;;;;;;;;;;6237943;28;20064;-80
2021/09/18 08:42:26;;;;;;;28.98;19.05;;;;;;;;;;6239234;28;20746;-82
2021/09/18 08:45:28;;;;;;;31.17;20.10;;;;;;;;;;6241816;28;20042;-81
2021/09/18 08:48:32;;;;;;;31.00;18.58;;;;;;;;;;6244688;28;20041;-82
2021/09/18 08:51:35;;;;;;;34.95;20.52;;;;;;;;;;6243736;28;20049;-81
2021/09/18 08:54:39;;;;;;;;;;;;;;;;;;6231781;28;20049;-80
2021/09/18 08:57:42;;;;;;;27.80;17.75;;;;;;;;;;6258748;28;19932;-81
2021/09/18 09:00:44;;;;;;;;;;;;;;;;;;6225798;28;20781;-81
2021/09/18 09:03:55;;;;;;;25.00;18.00;;;;;;;;;;6227728;28;20824;-81
2021/09/18 09:07:01;;;;;;;26.48;18.27;;;;;;;;;;6216149;28;20053;-82
2021/09/18 09:10:05;;;;;;;27.00;18.83;;;;;;;;;;6232392;28;20042;-81
2021/09/18 09:13:10;;;;;;;29.50;18.85;;;;;;;;;;6237394;28;20052;-81
2021/09/18 09:16:11;;;;;;;32.53;20.42;;;;;;;;;;6237527;28;20410;-78
2021/09/18 09:19:16;;;;;;;26.92;19.15;;;;;;;;;;6241017;28;20709;-80
2021/09/18 09:22:42;;;;;;;28.20;19.33;;;;;;;;;;6238551;28;20180;-81
2021/09/18 09:25:49;;;;;;;27.15;19.17;;;;;;;;;;6238618;28;20051;-82
2021/09/18 09:28:53;;;;;;;25.48;17.13;;;;;;;;;;6240406;28;20046;-81
2021/09/18 09:31:54;;;;;;;24.65;16.90;;;;;;;;;;6238297;28;20119;-81
2021/09/18 09:35:00;;;;;;;22.80;15.90;;;;;;;;;;6242468;28;20129;-81
2021/09/18 09:38:03;;;;;;;20.92;14.57;;;;;;;;;;6265699;28;20053;-80
2021/09/18 09:41:04;;;;;;;;;;;;;;;;;;6242566;28;20053;-81
2021/09/18 09:44:10;;;;;;;19.30;13.40;;;;;;;;;;6211256;28;20366;-80
2021/09/18 09:47:12;;;;;;;21.05;14.30;;;;;;;;;;6225593;28;20125;-81
2021/09/18 09:50:18;;;;;;;29.25;16.27;;;;;;;;;;6222093;28;20045;-78
2021/09/18 09:53:24;;;;;;;62.08;25.75;;;;;;;;;;6235646;28;20048;-78
2021/09/18 09:56:26;;;;;;;35.95;18.80;;;;;;;;;;6219048;28;20044;-79
2021/09/18 09:59:28;;;;;;;22.83;14.23;;;;;;;;;;6215446;28;20037;-79
2021/09/18 10:02:29;;;;;;;20.70;14.52;;;;;;;;;;6232253;28;20045;-77
2021/09/18 10:05:32;;;;;;;20.13;14.83;;;;;;;;;;6234604;28;20049;-76
2021/09/18 10:08:34;;;;;;;31.27;17.77;;;;;;;;;;6233136;28;20459;-77
2021/09/18 10:11:36;;;;;;;19.27;14.70;;;;;;;;;;6233558;28;20494;-77
2021/09/18 10:14:41;;;;;;;28.73;16.13;;;;;;;;;;6228170;28;20481;-77
2021/09/18 10:17:45;;;;;;;20.23;13.93;;;;;;;;;;6226936;28;20417;-77
2021/09/18 10:23:56;;;;;;;16.33;11.75;;;;;;;;;;6228301;28;20042;-78
2021/09/18 10:27:21;;;;;;;15.38;11.00;;;;;;;;;;6228314;28;20046;-77
2021/09/18 10:30:33;;;;;;;14.88;10.73;;;;;;;;;;6229434;28;20049;-78
2021/09/18 10:33:41;;;;;;;12.80;9.98;;;;;;;;;;6236473;28;20053;-77
2021/09/18 10:36:43;;;;;;;14.80;11.65;;;;;;;;;;6204893;28;20054;-78
2021/09/18 10:40:04;;;;;;;14.10;11.40;;;;;;;;;;6238299;28;20049;-75
2021/09/18 10:43:23;;;;;;;14.07;10.43;;;;;;;;;;6210901;28;20429;-79
2021/09/18 10:46:42;;;;;;;14.48;11.05;;;;;;;;;;6208442;28;20045;-77
2021/09/18 10:49:44;;;;;;;14.00;10.07;;;;;;;;;;6210383;28;20050;-78
2021/09/18 10:53:00;;;;;;;11.98;9.48;;;;;;;;;;6210730;28;20824;-77
2021/09/18 10:56:03;;;;;;;13.60;9.95;;;;;;;;;;6191885;28;20062;-76
2021/09/18 10:59:06;;;;;;;10.98;8.88;;;;;;;;;;6216044;28;20071;-77
2021/09/18 11:02:46;;;;;;;13.75;9.20;;;;;;;;;;6211262;28;20207;-78
2021/09/18 11:05:48;;;;;;;12.57;8.98;;;;;;;;;;6211702;28;20050;-78
2021/09/18 11:08:52;;;;;;;12.05;9.27;;;;;;;;;;6212808;28;20132;-78
2021/09/18 11:12:13;;;;;;;10.52;8.52;;;;;;;;;;6213499;28;20854;-76
2021/09/18 11:15:15;;;;;;;11.70;7.93;;;;;;;;;;6216469;28;20054;-77
2021/09/18 11:18:35;;;;;;;11.88;7.78;;;;;;;;;;6222959;28;20049;-78
2021/09/18 11:21:44;;;;;;;10.07;8.23;;;;;;;;;;6196231;28;20492;-77
2021/09/18 11:24:45;;;;;;;9.60;7.70;;;;;;;;;;6192966;28;20472;-77
2021/09/18 11:28:00;;;;;;;10.27;7.13;;;;;;;;;;6235027;28;20060;-77
2021/09/18 11:31:09;;;;;;;8.23;7.25;;;;;;;;;;6232687;28;20037;-77
2021/09/18 11:34:11;;;;;;;8.90;7.25;;;;;;;;;;6234670;28;20041;-76
2021/09/18 11:37:31;;;;;;;7.97;6.53;;;;;;;;;;6239697;28;20045;-78
2021/09/18 11:40:35;;;;;;;8.65;6.43;;;;;;;;;;6238717;28;20053;-77
2021/09/18 11:43:37;;;;;;;8.18;6.97;;;;;;;;;;6243315;28;20152;-78
2021/09/18 11:46:39;;;;;;;;;;;;;;;;;;6225796;28;21053;-76
2021/09/18 11:49:40;;;;;;;9.77;7.97;;;;;;;;;;6231951;28;19927;-78
2021/09/18 11:52:42;;;;;;;10.73;8.65;;;;;;;;;;6218374;28;20049;-78
2021/09/18 11:55:46;;;;;;;10.85;7.70;;;;;;;;;;6217764;28;20045;-77
2021/09/18 11:58:47;;;;;;;8.68;7.13;;;;;;;;;;6219482;28;20129;-77
2021/09/18 12:01:49;;;;;;;9.57;7.10;;;;;;;;;;6228539;28;20045;-76
2021/09/18 12:04:51;;;;;;;6.88;6.18;;;;;;;;;;6222556;28;20049;-78
2021/09/18 12:07:55;;;;;;;8.33;7.20;;;;;;;;;;6250044;28;20037;-80
2021/09/18 12:11:06;;;;;;;10.40;7.18;;;;;;;;;;6221762;28;20042;-78
2021/09/18 12:14:11;;;;;;;10.00;7.30;;;;;;;;;;6208775;28;20049;-79
2021/09/18 12:17:18;;;;;;;8.43;6.87;;;;;;;;;;6245087;28;20140;-78
2021/09/18 12:20:21;;;;;;;7.35;6.47;;;;;;;;;;6245091;28;20101;-77
2021/09/18 12:23:23;;;;;;;7.72;6.07;;;;;;;;;;6248917;28;20065;-84
2021/09/18 12:26:28;;;;;;;8.27;6.82;;;;;;;;;;6253029;28;20353;-80
2021/09/18 12:29:30;;;;;;;7.45;6.47;;;;;;;;;;6255807;28;20045;-81
2021/09/18 12:32:31;;;;;;;6.70;6.00;;;;;;;;;;6247452;28;20093;-80
2021/09/18 12:35:45;;;;;;;9.55;6.78;;;;;;;;;;6257439;28;20468;-81
2021/09/18 12:38:48;;;;;;;6.28;5.65;;;;;;;;;;6247841;28;20060;-81
2021/09/18 12:42:02;;;;;;;8.90;6.95;;;;;;;;;;6239966;28;20506;-81
2021/09/18 12:45:24;;;;;;;8.68;6.47;;;;;;;;;;6254822;28;20105;-80
2021/09/18 12:48:26;;;;;;;7.63;6.77;;;;;;;;;;6255824;28;20045;-81
2021/09/18 12:51:34;;;;;;;7.35;6.15;;;;;;;;;;6254680;28;20456;-81
2021/09/18 12:54:43;;;;;;;8.30;5.78;;;;;;;;;;6253758;28;20045;-82
2021/09/18 12:57:44;;;;;;;6.80;6.20;;;;;;;;;;6249683;28;20052;-81
2021/09/18 13:00:59;;;;;;;8.27;6.07;;;;;;;;;;6253239;28;20681;-81
2021/09/18 13:04:05;;;;;;;8.55;7.75;;;;;;;;;;6254479;28;20499;-82
2021/09/18 13:07:09;;;;;;;6.60;5.93;;;;;;;;;;6254380;28;20045;-83
2021/09/18 13:10:11;;;;;;;6.78;5.47;;;;;;;;;;6249710;28;20065;-82
2021/09/18 13:13:45;;;;;;;6.47;5.63;;;;;;;;;;6251432;28;20152;-81
2021/09/18 13:17:09;;;;;;;7.03;5.43;;;;;;;;;;6218428;28;20467;-81
2021/09/18 13:20:16;;;;;;;6.47;5.70;;;;;;;;;;6251819;28;20044;-80
2021/09/18 13:23:17;;;;;;;7.53;6.57;;;;;;;;;;6250501;28;20087;-82
2021/09/18 13:26:23;;;;;;;7.97;6.78;;;;;;;;;;6250968;28;20053;-81
2021/09/18 13:29:26;;;;;;;8.40;7.47;;;;;;;;;;6249719;28;20047;-82
2021/09/18 13:32:28;;;;;;;8.73;6.68;;;;;;;;;;6247117;28;20092;-81
2021/09/18 13:35:29;;;;;;;7.72;6.90;;;;;;;;;;6248816;28;20045;-82
2021/09/18 13:38:31;;;;;;;7.47;6.78;;;;;;;;;;6246666;28;20884;-81
2021/09/18 13:41:33;;;;;;;7.93;6.33;;;;;;;;;;6247856;28;20095;-82
2021/09/18 13:44:35;;;;;;;8.13;7.30;;;;;;;;;;6251201;28;20097;-81
2021/09/18 13:47:36;;;;;;;8.77;7.18;;;;;;;;;;6242056;28;20045;-81
2021/09/18 13:50:39;;;;;;;8.02;7.25;;;;;;;;;;6246109;28;20053;-81
2021/09/18 13:53:40;;;;;;;8.90;7.10;;;;;;;;;;6245621;28;20080;-82
2021/09/18 13:56:42;;;;;;;8.13;7.32;;;;;;;;;;6244988;28;20041;-82
2021/09/18 13:59:44;;;;;;;8.20;7.07;;;;;;;;;;6237859;28;20517;-82
2021/09/18 14:02:46;;;;;;;8.10;6.57;;;;;;;;;;6244998;28;20550;-82
2021/09/18 14:05:47;;;;;;;8.27;6.07;;;;;;;;;;6247177;28;20073;-82
2021/09/18 14:08:51;;;;;;;8.70;6.38;;;;;;;;;;6246600;28;20503;-81
2021/09/18 14:11:53;;;;;;;6.88;5.60;;;;;;;;;;6244377;28;20152;-82
2021/09/18 14:14:54;;;;;;;7.68;6.72;;;;;;;;;;6246724;28;20072;-82
2021/09/18 14:17:56;;;;;;;6.93;6.22;;;;;;;;;;6245359;28;20125;-82
2021/09/18 14:20:59;;;;;;;6.07;5.47;;;;;;;;;;6248448;28;20421;-81
2021/09/18 14:24:00;;;;;;;6.40;5.80;;;;;;;;;;6245477;28;20048;-82
2021/09/18 14:27:02;;;;;;;6.30;5.15;;;;;;;;;;6247301;28;20128;-82
2021/09/18 14:30:06;;;;;;;5.93;5.10;;;;;;;;;;6247233;28;20120;-82
2021/09/18 14:33:07;;;;;;;6.90;5.80;;;;;;;;;;6247822;28;20081;-80
2021/09/18 14:36:09;;;;;;;6.30;5.68;;;;;;;;;;6248532;28;20075;-82
2021/09/18 14:39:11;;;;;;;6.50;5.80;;;;;;;;;;6248553;28;20033;-81
2021/09/18 14:42:12;;;;;;;6.70;5.80;;;;;;;;;;6247021;28;20111;-80
2021/09/18 14:45:14;;;;;;;6.43;4.97;;;;;;;;;;6243274;28;20056;-82
2021/09/18 14:48:15;;;;;;;9.35;7.80;;;;;;;;;;6244147;28;20069;-82
2021/09/18 14:51:17;;;;;;;11.52;9.63;;;;;;;;;;6246324;28;20037;-81
2021/09/18 14:54:20;;;;;;;9.73;8.15;;;;;;;;;;6236843;28;20046;-81
2021/09/18 14:57:22;;;;;;;8.68;7.25;;;;;;;;;;6220945;28;20109;-82
2021/09/18 15:00:24;;;;;;;10.00;7.77;;;;;;;;;;6223264;28;20128;-82
2021/09/18 15:03:25;;;;;;;11.95;8.90;;;;;;;;;;6245930;28;20121;-83
2021/09/18 15:06:27;;;;;;;8.57;7.68;;;;;;;;;;6249411;28;20041;-81
2021/09/18 15:09:29;;;;;;;8.88;7.97;;;;;;;;;;6245770;28;20052;-80
2021/09/18 15:12:30;;;;;;;9.70;8.30;;;;;;;;;;6246924;28;20065;-83
2021/09/18 15:15:32;;;;;;;8.73;7.55;;;;;;;;;;6247485;28;20502;-82
2021/09/18 15:18:33;;;;;;;10.65;8.30;;;;;;;;;;6283082;28;20048;-80
2021/09/18 15:21:36;;;;;;;10.32;7.88;;;;;;;;;;6248791;28;20037;-80
2021/09/18 15:24:38;;;;;;;8.50;7.30;;;;;;;;;;6248536;28;20049;-81
2021/09/18 15:27:39;;;;;;;8.68;7.63;;;;;;;;;;6254204;28;20128;-82
2021/09/18 15:30:41;;;;;;;9.02;7.28;;;;;;;;;;6255447;28;20041;-81
2021/09/18 15:33:43;;;;;;;9.35;7.28;;;;;;;;;;6254580;28;20049;-81
2021/09/18 15:36:44;;;;;;;10.10;7.57;;;;;;;;;;6254967;28;20169;-82
2021/09/18 15:39:46;;;;;;;9.80;7.13;;;;;;;;;;6240937;28;20114;-79
2021/09/18 15:42:47;;;;;;;9.25;6.82;;;;;;;;;;6253109;28;20113;-82
2021/09/18 15:45:49;;;;;;;7.97;6.20;;;;;;;;;;6250276;28;20160;-82
2021/09/18 15:48:51;;;;;;;9.32;6.85;;;;;;;;;;6253985;28;20046;-83
2021/09/18 15:51:52;;;;;;;10.13;6.53;;;;;;;;;;6253592;28;20044;-83
2021/09/18 15:54:55;;;;;;;9.43;6.80;;;;;;;;;;6251643;28;20524;-81
2021/09/18 15:57:57;;;;;;;7.93;6.20;;;;;;;;;;6250362;28;20521;-82
2021/09/18 16:01:00;;;;;;;10.18;5.97;;;;;;;;;;6249263;28;20044;-82
2021/09/18 16:04:02;;;;;;;8.10;6.10;;;;;;;;;;6248207;28;20045;-83
2021/09/18 16:07:04;;;;;;;7.37;5.80;;;;;;;;;;6253747;28;20061;-83
2021/09/18 16:10:06;;;;;;;6.57;5.30;;;;;;;;;;6250800;28;20128;-83
2021/09/18 16:13:08;;;;;;;6.63;5.43;;;;;;;;;;6253282;28;20034;-81
2021/09/18 16:16:10;;;;;;;7.07;5.13;;;;;;;;;;6240323;28;20412;-81
2021/09/18 16:19:11;;;;;;;7.70;5.22;;;;;;;;;;6245094;28;20049;-81
2021/09/18 16:22:13;;;;;;;5.90;5.10;;;;;;;;;;6209793;28;20611;-82
2021/09/18 16:25:14;;;;;;;6.30;4.88;;;;;;;;;;6223311;28;20052;-81
2021/09/18 16:28:20;;;;;;;5.75;5.05;;;;;;;;;;6244877;28;20050;-81
2021/09/18 16:31:25;;;;;;;6.65;4.95;;;;;;;;;;6263970;28;20041;-81
2021/09/18 16:34:27;;;;;;;5.95;4.47;;;;;;;;;;6245243;28;20054;-81
2021/09/18 16:37:32;;;;;;;7.22;4.50;;;;;;;;;;6276601;28;20045;-82
2021/09/18 16:40:35;;;;;;;7.70;4.50;;;;;;;;;;6254562;28;20068;-81
2021/09/18 16:43:36;;;;;;;5.68;4.10;;;;;;;;;;6219987;28;20128;-82
2021/09/18 16:46:38;;;;;;;5.00;4.22;;;;;;;;;;6233689;28;20042;-79
2021/09/18 16:49:40;;;;;;;4.90;4.00;;;;;;;;;;6223046;28;20558;-80
2021/09/18 16:52:41;;;;;;;4.75;4.03;;;;;;;;;;6274778;28;20046;-80
2021/09/18 16:55:43;;;;;;;4.55;3.25;;;;;;;;;;6241527;28;20055;-80
2021/09/18 16:58:44;;;;;;;3.53;3.17;;;;;;;;;;6243457;28;20046;-80
2021/09/18 17:01:46;;;;;;;5.15;3.90;;;;;;;;;;6226383;28;20124;-82
2021/09/18 17:04:48;;;;;;;5.00;3.67;;;;;;;;;;6240833;28;20049;-80
2021/09/18 17:07:49;;;;;;;4.07;3.28;;;;;;;;;;6245378;28;20056;-80
2021/09/18 17:10:51;;;;;;;4.18;3.05;;;;;;;;;;6245663;28;20092;-80
2021/09/18 17:13:54;;;;;;;4.80;3.70;;;;;;;;;;6243880;28;20174;-81
2021/09/18 17:16:55;;;;;;;5.28;3.90;;;;;;;;;;6244115;28;20097;-80
2021/09/18 17:19:57;;;;;;;5.28;4.00;;;;;;;;;;6245629;28;20053;-80
2021/09/18 17:22:59;;;;;;;5.90;3.60;;;;;;;;;;6248433;28;20682;-80
2021/09/18 17:26:00;;;;;;;4.30;3.65;;;;;;;;;;6242355;28;20045;-82
2021/09/18 17:29:03;;;;;;;5.15;3.92;;;;;;;;;;6226352;28;20045;-81
2021/09/18 17:32:05;;;;;;;4.43;3.80;;;;;;;;;;6239299;28;20034;-82
2021/09/18 17:35:07;;;;;;;4.13;3.57;;;;;;;;;;6242995;28;20522;-81
2021/09/18 17:38:10;;;;;;;6.75;4.00;;;;;;;;;;6238426;28;20045;-81
2021/09/18 17:41:13;;;;;;;6.57;4.65;;;;;;;;;;6238901;28;20111;-80
2021/09/18 17:44:14;;;;;;;;;;;;;;;;;;6241865;28;20138;-80
2021/09/18 17:47:17;;;;;;;4.85;4.20;;;;;;;;;;6241274;28;19927;-79
2021/09/18 17:50:18;;;;;;;5.32;4.15;;;;;;;;;;6242309;28;20045;-81
2021/09/18 17:53:21;;;;;;;5.22;4.13;;;;;;;;;;6241533;28;20128;-81
2021/09/18 17:56:23;;;;;;;8.15;4.30;;;;;;;;;;6241873;28;20137;-80
2021/09/18 17:59:25;;;;;;;5.07;3.90;;;;;;;;;;6242211;28;20080;-81
2021/09/18 18:02:27;;;;;;;3.95;3.47;;;;;;;;;;6234751;28;20128;-81